Time;durP1;ratioP1;P1;durP2;ratioP2;P2;SDS_P1;SDS_P2;PMS_P1;PMS_P2;Temp;Humidity;BMP_temperature;BMP_pressure;BME280_temperature;BME280_humidity;BME280_pressure;Samples;Min_cycle;Max_cycle;Signal;HPM_P1;HPM_P2
2022/08/16 00:01:20;;;;;;;;;;;;;;;22.08;59.24;97866.50;4409353;32;20116;-70
2022/08/16 00:03:53;;;;;;;6.25;4.72;;;;;;;22.00;59.77;97859.69;4409459;32;20343;-71
2022/08/16 00:06:21;;;;;;;11.30;4.80;;;;;;;22.01;60.34;97866.63;4421181;32;20160;-70
2022/08/16 00:08:48;;;;;;;10.48;4.55;;;;;;;21.95;61.27;97873.72;4421189;32;20182;-71
2022/08/16 00:11:20;;;;;;;8.65;5.00;;;;;;;21.87;61.83;97870.59;4421443;32;20120;-70
2022/08/16 00:13:49;;;;;;;7.80;4.78;;;;;;;21.85;61.43;97870.81;4421318;32;20086;-70
2022/08/16 00:16:30;;;;;;;9.02;4.95;;;;;;;21.74;61.72;97879.59;4421482;32;20123;-70
2022/08/16 00:19:23;;;;;;;8.88;4.97;;;;;;;21.60;61.88;97871.03;4448905;32;20167;-70
2022/08/16 00:21:55;;;;;;;8.50;5.03;;;;;;;21.50;62.53;97873.44;4485892;31;20093;-70
2022/08/16 00:24:29;;;;;;;5.75;4.70;;;;;;;21.40;63.09;97874.78;4484444;32;20165;-70
2022/08/16 00:27:00;;;;;;;8.98;5.35;;;;;;;21.28;63.98;97868.63;4485670;31;20122;-70
2022/08/16 00:29:28;;;;;;;7.72;4.80;;;;;;;21.20;64.32;97866.31;4485775;31;20088;-70
2022/08/16 00:31:57;;;;;;;8.57;5.10;;;;;;;21.15;64.78;97868.81;4485782;31;20100;-70
2022/08/16 00:34:34;;;;;;;6.22;4.53;;;;;;;21.11;65.09;97868.47;4485812;32;20088;-70
2022/08/16 00:37:23;;;;;;;10.02;4.97;;;;;;;21.11;64.63;97870.34;4485850;31;20092;-70
2022/08/16 00:40:14;;;;;;;8.57;4.55;;;;;;;20.92;62.77;97865.06;4485396;31;20165;-70
2022/08/16 00:43:06;;;;;;;8.18;4.43;;;;;;;20.80;62.00;97869.53;4484964;32;20133;-70
2022/08/16 00:45:48;;;;;;;7.68;4.60;;;;;;;20.86;61.06;97866.78;4485701;31;20545;-70
2022/08/16 00:48:28;;;;;;;7.00;4.75;;;;;;;20.88;61.33;97871.88;4485608;31;20390;-70
2022/08/16 00:51:02;;;;;;;5.72;4.47;;;;;;;20.84;61.67;97876.84;4485651;31;20079;-70
2022/08/16 00:53:31;;;;;;;6.45;4.47;;;;;;;20.79;61.68;97882.03;4484862;31;20502;-70
2022/08/16 00:56:03;;;;;;;6.10;3.85;;;;;;;20.74;61.28;97880.03;4485768;31;20134;-70
2022/08/16 00:58:33;;;;;;;7.80;4.57;;;;;;;20.73;61.26;97881.06;4484343;32;20092;-70
2022/08/16 01:01:05;;;;;;;13.80;4.50;;;;;;;20.70;61.53;97889.50;4485570;31;20156;-70
2022/08/16 01:03:36;;;;;;;5.83;3.90;;;;;;;20.62;61.26;97879.16;4485740;31;20103;-70
2022/08/16 01:06:09;;;;;;;4.90;3.83;;;;;;;20.64;60.32;97879.72;4485547;31;20111;-70
2022/08/16 01:08:58;;;;;;;5.15;3.97;;;;;;;20.71;60.47;97885.00;4484324;32;20151;-70
2022/08/16 01:11:26;;;;;;;5.65;4.20;;;;;;;20.71;60.38;97880.50;4484302;32;20100;-70
2022/08/16 01:14:02;;;;;;;5.00;3.70;;;;;;;20.68;60.48;97880.13;4485754;31;20084;-70
2022/08/16 01:16:30;;;;;;;5.55;3.90;;;;;;;20.73;61.03;97883.72;4485352;31;20085;-70
2022/08/16 01:19:03;;;;;;;6.10;4.35;;;;;;;20.66;59.41;97882.19;4485553;31;20119;-70
2022/08/16 01:21:46;;;;;;;8.68;4.10;;;;;;;20.49;60.39;97877.44;4484305;32;20127;-70
2022/08/16 01:24:36;;;;;;;7.37;3.97;;;;;;;20.42;60.64;97879.38;4484173;32;20534;-70
2022/08/16 01:27:27;;;;;;;6.53;4.35;;;;;;;20.53;60.42;97885.78;4485659;31;20112;-70
2022/08/16 01:30:05;;;;;;;6.75;4.82;;;;;;;20.71;60.24;97888.47;4485560;31;20104;-70
2022/08/16 01:32:48;;;;;;;8.35;5.05;;;;;;;20.87;60.39;97886.22;4485421;31;20081;-70
2022/08/16 01:35:53;;;;;;;7.60;4.78;;;;;;;21.00;60.06;97886.06;4485599;31;20445;-70
2022/08/16 01:38:44;;;;;;;11.15;4.60;;;;;;;21.08;60.29;97879.59;4451475;32;20575;-70
2022/08/16 01:41:19;;;;;;;;;;;;;;;21.07;60.46;97877.97;4451981;32;20112;-70
2022/08/16 01:43:50;;;;;;;7.75;4.60;;;;;;;21.07;60.79;97878.78;4451941;32;20059;-70
2022/08/16 01:46:34;;;;;;;6.27;4.20;;;;;;;21.03;61.34;97888.25;4451602;32;20124;-70
2022/08/16 01:49:21;;;;;;;9.15;4.70;;;;;;;21.02;61.58;97893.81;4451695;32;20156;-70
2022/08/16 01:51:54;;;;;;;7.85;4.50;;;;;;;20.94;61.87;97886.12;4451635;32;20108;-70
2022/08/16 01:54:22;;;;;;;6.03;4.37;;;;;;;20.86;62.06;97892.59;4439048;32;20176;-70
2022/08/16 01:56:58;;;;;;;7.78;4.97;;;;;;;20.81;62.33;97889.78;4451722;32;20092;-70
2022/08/16 01:59:27;;;;;;;8.10;4.62;;;;;;;20.74;62.59;97889.84;4451396;32;20101;-70
2022/08/16 02:01:55;;;;;;;6.85;4.30;;;;;;;20.62;63.71;97880.97;4451563;32;20125;-70
2022/08/16 02:04:28;;;;;;;6.57;5.05;;;;;;;20.52;64.55;97884.19;4451374;32;20116;-70
2022/08/16 02:07:17;;;;;;;7.97;4.65;;;;;;;20.38;65.02;97892.31;4437683;32;20127;-70
2022/08/16 02:09:50;;;;;;;7.93;4.75;;;;;;;20.29;65.39;97888.31;4423699;32;20171;-70
2022/08/16 02:12:28;;;;;;;7.70;5.43;;;;;;;20.25;65.73;97887.13;4435873;32;20113;-70
2022/08/16 02:15:17;;;;;;;9.05;5.07;;;;;;;20.25;65.57;97892.47;4449174;32;20115;-70
2022/08/16 02:17:56;;;;;;;7.53;4.50;;;;;;;20.34;64.97;97885.00;4469539;32;20088;-70
2022/08/16 02:20:26;;;;;;;9.32;4.57;;;;;;;20.43;64.56;97877.53;4469191;32;20123;-70
2022/08/16 02:22:55;;;;;;;10.15;5.05;;;;;;;20.45;64.47;97870.94;4469312;32;20109;-70
2022/08/16 02:25:23;;;;;;;9.98;5.10;;;;;;;20.44;64.53;97872.00;4469150;32;20430;-70
2022/08/16 02:28:11;;;;;;;11.18;5.20;;;;;;;20.48;64.78;97873.16;4469319;32;20076;-70
2022/08/16 02:30:44;;;;;;;10.60;5.40;;;;;;;20.42;64.84;97870.59;4469567;32;20081;-70
2022/08/16 02:33:17;;;;;;;11.00;4.97;;;;;;;20.28;65.45;97870.72;4468912;32;20116;-70
2022/08/16 02:35:45;;;;;;;8.10;5.07;;;;;;;20.12;66.46;97876.63;4469332;32;20122;-70
2022/08/16 02:38:26;;;;;;;9.25;4.82;;;;;;;20.06;67.04;97873.03;4482776;32;20492;-71
2022/08/16 02:40:55;;;;;;;8.55;5.10;;;;;;;19.96;67.62;97883.34;4484739;31;20506;-70
2022/08/16 02:43:24;;;;;;;12.48;5.25;;;;;;;19.94;67.96;97883.56;4484370;32;20150;-70
2022/08/16 02:45:55;;;;;;;7.43;5.05;;;;;;;20.05;68.10;97881.22;4484998;31;20175;-70
2022/08/16 02:48:23;;;;;;;8.73;5.57;;;;;;;20.13;67.80;97876.41;4484656;31;20088;-70
2022/08/16 02:50:58;;;;;;;9.85;5.25;;;;;;;20.14;67.71;97872.72;4484141;31;20536;-70
2022/08/16 02:53:40;;;;;;;7.25;4.85;;;;;;;20.06;67.84;97865.06;4484719;31;20166;-70
2022/08/16 02:56:14;;;;;;;8.40;4.90;;;;;;;20.05;67.74;97867.94;4484674;31;20168;-70
2022/08/16 02:58:44;;;;;;;7.97;5.00;;;;;;;20.02;67.78;97871.84;4484426;32;20148;-70
2022/08/16 03:01:13;;;;;;;7.12;4.87;;;;;;;20.01;67.72;97872.88;4484630;31;20096;-70
2022/08/16 03:04:03;;;;;;;8.40;4.93;;;;;;;20.01;67.56;97876.31;4484480;31;20129;-70
2022/08/16 03:06:50;;;;;;;8.43;5.00;;;;;;;20.09;67.28;97871.75;4484559;31;20149;-70
2022/08/16 03:09:25;;;;;;;8.00;4.90;;;;;;;20.25;66.78;97870.38;4484353;31;20115;-70
2022/08/16 03:11:57;;;;;;;8.93;5.10;;;;;;;20.28;66.64;97870.72;4484610;31;20428;-70
2022/08/16 03:14:28;;;;;;;7.05;4.53;;;;;;;20.26;66.53;97870.16;4484312;32;20092;-70
2022/08/16 03:16:56;;;;;;;6.90;4.80;;;;;;;20.22;66.63;97874.28;4486307;31;20087;-70
2022/08/16 03:19:31;;;;;;;8.15;5.28;;;;;;;20.21;66.55;97880.63;4486521;31;20115;-70
2022/08/16 03:22:20;;;;;;;5.97;4.32;;;;;;;20.06;67.40;97877.53;4486338;31;20080;-70
2022/08/16 03:25:01;;;;;;;7.80;4.97;;;;;;;20.06;67.46;97885.50;4486275;31;20130;-70
2022/08/16 03:27:30;;;;;;;12.63;5.18;;;;;;;19.95;68.00;97893.16;4486423;31;20110;-70
2022/08/16 03:30:09;;;;;;;10.68;4.90;;;;;;;20.04;67.63;97901.66;4486343;31;20088;-70
2022/08/16 03:32:47;;;;;;;6.87;5.43;;;;;;;19.90;67.64;97908.97;4486329;31;20085;-70
2022/08/16 03:35:20;;;;;;;13.80;5.10;;;;;;;19.83;68.35;97902.88;4486502;31;20145;-70
2022/08/16 03:37:55;;;;;;;10.30;5.03;;;;;;;19.84;68.73;97912.50;4486020;31;20093;-70
2022/08/16 03:40:32;;;;;;;8.88;5.55;;;;;;;19.80;69.02;97911.28;4486411;31;20092;-70
2022/08/16 03:43:04;;;;;;;13.80;5.53;;;;;;;19.75;69.35;97913.78;4486444;31;20076;-70
2022/08/16 03:45:49;;;;;;;9.55;6.03;;;;;;;19.77;69.41;97919.66;4486254;32;20100;-70
2022/08/16 03:48:24;;;;;;;15.00;5.37;;;;;;;19.85;69.35;97919.44;4486354;31;20097;-70
2022/08/16 03:51:09;;;;;;;6.72;5.18;;;;;;;19.88;69.46;97928.81;4486314;31;20147;-70
2022/08/16 03:53:41;;;;;;;8.68;5.07;;;;;;;19.93;69.78;97932.44;4485978;31;20088;-70
2022/08/16 03:56:09;;;;;;;9.07;5.55;;;;;;;19.97;69.31;97933.66;4486176;31;20164;-70
2022/08/16 03:58:48;;;;;;;9.15;5.65;;;;;;;20.03;69.35;97922.13;4486328;31;20111;-70
2022/08/16 04:01:20;;;;;;;8.65;5.20;;;;;;;20.16;69.41;97923.84;4486238;31;20106;-70
2022/08/16 04:03:50;;;;;;;5.97;4.70;;;;;;;20.27;68.70;97916.97;4486178;31;20397;-70
2022/08/16 04:06:20;;;;;;;9.00;4.90;;;;;;;20.43;67.82;97914.78;4486168;31;20144;-70
2022/08/16 04:08:48;;;;;;;9.90;5.12;;;;;;;20.52;67.61;97913.44;4485829;31;20112;-70
2022/08/16 04:11:15;;;;;;;8.70;4.72;;;;;;;20.68;67.11;97907.56;4486107;31;20116;-70
2022/08/16 04:13:44;;;;;;;12.82;5.05;;;;;;;20.85;66.60;97909.62;4486098;31;20355;-70
2022/08/16 04:16:32;;;;;;;9.95;5.68;;;;;;;21.02;66.08;97913.25;4485779;32;20100;-70
2022/08/16 04:19:03;;;;;;;9.52;5.03;;;;;;;21.16;65.58;97923.72;4485847;31;20126;-70
2022/08/16 04:21:33;;;;;;;10.45;5.72;;;;;;;21.34;65.01;97929.00;4485917;31;20096;-70
2022/08/16 04:24:02;;;;;;;12.88;6.00;;;;;;;21.53;64.60;97931.62;4485742;31;20100;-70
2022/08/16 04:26:30;;;;;;;8.10;5.45;;;;;;;21.58;64.56;97931.75;4485411;31;20156;-70
2022/08/16 04:29:00;;;;;;;11.93;5.90;;;;;;;21.65;64.74;97926.31;4485683;31;20080;-70
2022/08/16 04:31:48;;;;;;;8.45;5.72;;;;;;;21.72;64.58;97933.16;4485730;31;20076;-70
2022/08/16 04:34:30;;;;;;;7.32;5.25;;;;;;;21.77;64.36;97930.63;4485957;31;20094;-70
2022/08/16 04:36:59;;;;;;;12.35;5.62;;;;;;;21.82;64.08;97927.28;4485901;31;20089;-70
2022/08/16 04:39:30;;;;;;;10.52;5.05;;;;;;;21.87;63.87;97930.03;4485625;31;20590;-70
2022/08/16 04:42:17;;;;;;;8.23;5.68;;;;;;;22.09;63.06;97938.31;4485984;31;20538;-70
2022/08/16 04:44:54;;;;;;;19.33;5.50;;;;;;;22.19;62.62;97947.56;4485791;31;20137;-70
2022/08/16 04:47:28;;;;;;;7.70;5.30;;;;;;;22.37;62.32;97933.31;4485441;31;20497;-70
2022/08/16 04:50:08;;;;;;;9.90;5.68;;;;;;;22.51;61.81;97940.00;4485569;31;20124;-70
2022/08/16 04:52:36;;;;;;;13.93;5.40;;;;;;;22.74;61.03;97944.50;4485711;31;20088;-70
2022/08/16 04:55:09;;;;;;;12.05;5.55;;;;;;;22.92;60.40;97935.53;4485351;31;20522;-70
2022/08/16 04:57:39;;;;;;;16.33;5.95;;;;;;;23.02;60.37;97940.25;4485897;31;20115;-70
2022/08/16 05:00:12;;;;;;;10.88;5.43;;;;;;;23.03;61.34;97940.00;4485649;31;20092;-70
2022/08/16 05:03:09;;;;;;;7.68;5.40;;;;;;;22.98;62.58;97942.59;4481751;32;20110;-70
2022/08/16 05:05:40;;;;;;;12.73;5.47;;;;;;;23.04;62.63;97944.31;4482587;32;20553;-70
2022/08/16 05:08:23;;;;;;;13.20;5.35;;;;;;;23.12;62.71;97942.31;4483547;31;20088;-69
2022/08/16 05:10:59;;;;;;;11.68;6.05;;;;;;;23.24;62.54;97958.28;4478710;32;20088;-70
2022/08/16 05:13:30;;;;;;;14.80;6.40;;;;;;;23.37;64.06;97958.00;4474496;32;20235;-70
2022/08/16 05:16:12;;;;;;;10.02;5.53;;;;;;;23.51;64.59;97959.34;4477971;32;20092;-70
2022/08/16 05:18:52;;;;;;;9.93;5.85;;;;;;;23.49;63.71;97964.09;4480407;32;20152;-70
2022/08/16 05:21:20;;;;;;;9.57;6.03;;;;;;;23.41;62.95;97967.16;4481871;32;20161;-70
2022/08/16 05:23:51;;;;;;;15.27;5.75;;;;;;;23.45;62.66;97973.66;4481983;31;20464;-70
2022/08/16 05:26:29;;;;;;;16.10;5.78;;;;;;;23.36;62.66;97977.75;4481000;31;20099;-70
2022/08/16 05:28:57;;;;;;;14.43;5.07;;;;;;;23.48;62.38;97975.88;4476537;32;20138;-70
2022/08/16 05:31:28;;;;;;;8.77;5.30;;;;;;;23.66;60.62;97963.31;4481007;32;20116;-70
2022/08/16 05:34:20;;;;;;;13.23;5.15;;;;;;;23.63;59.92;97964.59;4478745;32;20119;-70
2022/08/16 05:36:49;;;;;;;11.38;5.47;;;;;;;23.64;59.41;97973.44;4483903;31;20520;-70
2022/08/16 05:39:18;;;;;;;10.65;5.07;;;;;;;23.60;58.71;97969.62;4481468;31;20382;-70
2022/08/16 05:41:46;;;;;;;11.63;5.03;;;;;;;23.60;58.58;97983.78;4474337;32;20135;-70
2022/08/16 05:44:20;;;;;;;9.32;4.30;;;;;;;23.70;58.58;97986.66;4477708;32;20114;-70
2022/08/16 05:46:53;;;;;;;9.32;5.07;;;;;;;23.67;58.17;97981.78;4476663;32;20149;-70
2022/08/16 05:49:25;;;;;;;11.60;5.18;;;;;;;23.79;56.75;97987.06;4473440;32;20123;-70
2022/08/16 05:52:07;;;;;;;8.77;5.70;;;;;;;23.73;56.88;97978.16;4483693;32;20151;-70
2022/08/16 05:54:41;;;;;;;8.80;5.28;;;;;;;23.61;56.70;97976.59;4484829;31;20119;-70
2022/08/16 05:57:16;;;;;;;8.07;5.15;;;;;;;23.54;56.49;97980.25;4481650;31;20076;-70
2022/08/16 05:59:47;;;;;;;11.12;5.20;;;;;;;23.56;56.75;97972.78;4481422;31;20108;-70
2022/08/16 06:02:29;;;;;;;8.10;5.00;;;;;;;23.77;56.47;97977.66;4483333;31;20097;-70
2022/08/16 06:05:00;;;;;;;6.78;4.70;;;;;;;24.05;55.39;97968.78;4483324;32;20118;-70
2022/08/16 06:07:28;;;;;;;6.72;3.90;;;;;;;24.23;53.93;97970.38;4482460;31;20393;-70
2022/08/16 06:10:00;;;;;;;8.02;4.35;;;;;;;24.21;52.14;97969.81;4482305;31;20118;-70
2022/08/16 06:12:29;;;;;;;6.10;4.40;;;;;;;24.19;52.95;97975.41;4478253;32;20613;-70
2022/08/16 06:15:05;;;;;;;9.60;4.15;;;;;;;24.20;53.59;97973.56;4472455;32;20161;-70
2022/08/16 06:17:35;;;;;;;10.50;4.28;;;;;;;24.18;54.10;97979.16;4478126;32;20095;-70
2022/08/16 06:20:19;;;;;;;10.35;4.60;;;;;;;23.90;55.17;97972.81;4478083;32;20162;-70
2022/08/16 06:22:54;;;;;;;6.10;3.90;;;;;;;23.74;55.97;97974.44;4482733;32;20141;-70
2022/08/16 06:25:31;;;;;;;5.22;3.87;;;;;;;23.59;55.51;97970.66;4480645;32;20092;-70
2022/08/16 06:28:08;;;;;;;8.40;3.20;;;;;;;23.82;53.78;97967.88;4481528;32;20084;-70
2022/08/16 06:30:38;;;;;;;4.78;3.30;;;;;;;23.92;54.31;97970.75;4482427;31;20138;-70
2022/08/16 06:33:15;;;;;;;6.65;3.60;;;;;;;23.92;54.08;97976.09;4484412;31;20096;-70
2022/08/16 06:35:52;;;;;;;5.22;3.40;;;;;;;24.03;55.60;97982.41;4482100;31;20077;-70
2022/08/16 06:38:27;;;;;;;12.57;6.00;;;;;;;24.05;56.80;97988.31;4483800;31;20144;-70
2022/08/16 06:41:02;;;;;;;7.80;5.30;;;;;;;23.29;64.58;97980.59;4483503;32;20084;-70
2022/08/16 06:43:31;;;;;;;10.15;5.00;;;;;;;22.83;67.54;97972.47;4483197;31;20100;-70
2022/08/16 06:45:59;;;;;;;8.10;4.97;;;;;;;22.74;68.06;97976.56;4481999;32;20096;-70
2022/08/16 06:48:31;;;;;;;11.85;4.80;;;;;;;23.04;67.90;97972.84;4477568;31;20084;-70
2022/08/16 06:51:03;;;;;;;8.32;3.95;;;;;;;23.42;65.74;97971.44;4476642;32;20132;-70
2022/08/16 06:53:32;;;;;;;9.70;4.30;;;;;;;23.61;62.11;97965.91;4483674;31;20103;-70
2022/08/16 06:56:05;;;;;;;5.85;2.95;;;;;;;23.98;63.59;97973.47;4482600;31;20072;-70
2022/08/16 06:58:51;;;;;;;5.15;3.12;;;;;;;24.38;58.32;97973.28;4480237;32;20139;-70
2022/08/16 07:01:21;;;;;;;13.10;5.80;;;;;;;24.56;53.00;97976.75;4478364;32;20147;-70
2022/08/16 07:04:08;;;;;;;7.47;5.43;;;;;;;23.71;63.02;97979.47;4482256;31;20448;-70
2022/08/16 07:06:40;;;;;;;7.75;5.45;;;;;;;23.25;64.12;97966.06;4481270;31;20099;-71
2022/08/16 07:09:11;;;;;;;8.75;5.68;;;;;;;22.87;65.25;97976.28;4476917;31;20571;-70
2022/08/16 07:11:39;;;;;;;8.90;6.15;;;;;;;22.84;66.11;97976.75;4478162;32;20131;-70
2022/08/16 07:14:18;;;;;;;10.27;5.10;;;;;;;22.56;66.91;97979.34;4478355;32;20114;-70
2022/08/16 07:16:56;;;;;;;7.35;5.40;;;;;;;22.42;66.15;97982.28;4482241;31;20123;-70
2022/08/16 07:19:25;;;;;;;12.82;6.47;;;;;;;22.42;65.57;97976.13;4479803;32;20557;-70
2022/08/16 07:22:14;;;;;;;9.18;6.55;;;;;;;22.22;66.31;97979.13;4478089;32;20097;-70
2022/08/16 07:25:03;;;;;;;11.95;6.00;;;;;;;22.26;65.59;97975.75;4472380;32;20134;-70
2022/08/16 07:27:31;;;;;;;7.78;5.07;;;;;;;22.64;63.29;97974.47;4482325;32;20119;-70
2022/08/16 07:30:07;;;;;;;18.77;7.57;;;;;;;22.79;61.88;97979.31;4479367;31;20127;-70
2022/08/16 07:32:55;;;;;;;10.05;4.93;;;;;;;23.21;60.70;98000.50;4478678;32;20157;-70
2022/08/16 07:35:23;;;;;;;6.72;4.90;;;;;;;23.81;58.75;97995.66;4480270;31;20158;-70
2022/08/16 07:37:51;;;;;;;7.22;5.15;;;;;;;24.01;55.62;98010.44;4482416;31;20084;-70
2022/08/16 07:40:19;;;;;;;7.93;4.53;;;;;;;24.07;55.18;98007.62;4476429;32;20108;-70
2022/08/16 07:43:06;;;;;;;8.27;4.43;;;;;;;24.33;55.06;98015.22;4482736;31;20122;-70
2022/08/16 07:45:34;;;;;;;7.70;4.22;;;;;;;24.50;53.19;98013.34;4483116;32;20115;-70
2022/08/16 07:48:01;;;;;;;9.25;4.10;;;;;;;24.53;53.01;98022.75;4479643;31;20126;-70
2022/08/16 07:50:41;;;;;;;7.12;4.20;;;;;;;24.62;52.32;98018.63;4475324;31;20615;-70
2022/08/16 07:53:25;;;;;;;5.70;4.07;;;;;;;24.57;52.69;98008.62;4480425;31;20554;-70
2022/08/16 07:55:56;;;;;;;9.38;4.00;;;;;;;24.58;52.17;98012.94;4473956;31;20493;-70
2022/08/16 07:58:27;;;;;;;4.80;4.07;;;;;;;24.62;52.29;98016.75;4478078;32;20096;-70
2022/08/16 08:01:05;;;;;;;6.90;4.05;;;;;;;24.68;51.85;98020.31;4478929;32;20085;-70
2022/08/16 08:03:42;;;;;;;7.53;4.00;;;;;;;24.80;50.50;98012.19;4480914;32;20108;-71
2022/08/16 08:06:19;;;;;;;6.40;3.45;;;;;;;24.98;50.15;98009.19;4483144;32;20091;-70
2022/08/16 08:08:46;;;;;;;7.95;3.65;;;;;;;25.24;49.15;98014.84;4481191;31;20148;-70
2022/08/16 08:11:20;;;;;;;7.45;3.75;;;;;;;25.31;48.42;98018.16;4483446;31;20141;-70
2022/08/16 08:13:52;;;;;;;9.55;4.00;;;;;;;25.27;48.25;98022.38;4484549;31;20129;-71
2022/08/16 08:16:20;;;;;;;8.45;4.57;;;;;;;25.15;51.23;98030.56;4476231;31;20123;-70
2022/08/16 08:18:59;;;;;;;7.53;4.72;;;;;;;25.20;52.94;98021.75;4473835;32;20096;-70
2022/08/16 08:21:30;;;;;;;7.03;4.55;;;;;;;25.65;51.78;98034.06;4484835;32;20107;-70
2022/08/16 08:24:20;;;;;;;6.60;4.30;;;;;;;25.80;50.69;98025.34;4477540;32;20112;-71
2022/08/16 08:26:47;;;;;;;5.07;3.97;;;;;;;25.82;50.01;98030.47;4480042;31;20144;-70
2022/08/16 08:29:17;;;;;;;8.32;4.37;;;;;;;26.08;49.88;98028.03;4484556;31;20109;-70
2022/08/16 08:31:50;;;;;;;9.02;4.47;;;;;;;26.21;49.00;98035.66;4484174;31;20598;-70
2022/08/16 08:34:20;;;;;;;5.82;4.43;;;;;;;26.33;49.42;98028.22;4484188;31;20096;-71
2022/08/16 08:36:49;;;;;;;5.55;4.00;;;;;;;26.64;48.13;98030.28;4481996;32;20109;-71
2022/08/16 08:39:21;;;;;;;6.47;4.53;;;;;;;26.79;47.96;98024.22;4482872;31;20103;-70
2022/08/16 08:41:49;;;;;;;6.00;4.60;;;;;;;27.06;48.00;98032.13;4484575;31;20764;-71
2022/08/16 08:44:19;;;;;;;5.15;3.65;;;;;;;27.24;47.76;98030.84;4483238;32;20123;-70
2022/08/16 08:47:02;;;;;;;6.18;4.03;;;;;;;27.58;46.58;98035.81;4483841;32;20172;-71
2022/08/16 08:49:37;;;;;;;6.10;4.12;;;;;;;27.78;45.36;98024.25;4481982;31;20458;-71
2022/08/16 08:52:13;;;;;;;8.23;4.35;;;;;;;27.75;44.44;98025.63;4479886;32;20548;-71
2022/08/16 08:55:06;;;;;;;6.12;4.55;;;;;;;27.92;44.33;98019.16;4480644;32;20109;-71
2022/08/16 08:57:43;;;;;;;5.57;4.07;;;;;;;28.05;43.58;98020.53;4481027;31;20508;-71
2022/08/16 09:00:13;;;;;;;8.10;4.25;;;;;;;28.03;43.77;98020.00;4477359;31;20169;-71
2022/08/16 09:02:42;;;;;;;7.28;4.00;;;;;;;28.34;43.74;98031.53;4483889;32;20567;-71
2022/08/16 09:05:20;;;;;;;6.53;3.65;;;;;;;28.43;42.14;98029.91;4477876;32;20638;-71
2022/08/16 09:07:49;;;;;;;5.05;3.72;;;;;;;28.45;41.94;98025.06;4479325;31;21493;-71
2022/08/16 09:10:29;;;;;;;5.85;3.90;;;;;;;28.60;41.48;98029.66;4476437;32;20169;-71
2022/08/16 09:12:57;;;;;;;4.87;3.78;;;;;;;28.52;41.29;98027.47;4481147;32;20115;-71
2022/08/16 09:15:26;;;;;;;4.75;4.20;;;;;;;28.72;40.71;98025.84;4477913;31;20089;-71
2022/08/16 09:18:01;;;;;;;4.82;3.40;;;;;;;28.85;40.62;98017.97;4474598;31;80470;-71
2022/08/16 09:20:52;;;;;;;6.47;4.07;;;;;;;28.98;39.96;98024.69;4478882;31;20084;-71
2022/08/16 09:23:29;;;;;;;5.62;4.15;;;;;;;28.98;39.77;98013.09;4476907;32;20118;-71
2022/08/16 09:26:06;;;;;;;7.00;4.43;;;;;;;29.13;39.49;98010.34;4482946;32;20096;-71
2022/08/16 09:28:54;;;;;;;6.90;3.70;;;;;;;29.46;38.79;98001.81;4480693;32;20442;-71
2022/08/16 09:31:42;;;;;;;4.10;3.45;;;;;;;29.72;38.06;98005.13;4480822;32;20144;-71
2022/08/16 09:34:11;;;;;;;3.65;3.33;;;;;;;29.89;37.69;98010.97;4483317;32;20114;-72
2022/08/16 09:36:45;;;;;;;6.05;3.35;;;;;;;29.82;37.83;98002.38;4483707;31;20122;-71
2022/08/16 09:39:13;;;;;;;4.50;3.62;;;;;;;30.05;37.63;98008.16;4480570;32;20510;-71
2022/08/16 09:41:50;;;;;;;5.43;3.70;;;;;;;30.13;36.53;98004.03;4480378;31;20101;-71
2022/08/16 09:44:20;;;;;;;7.85;3.60;;;;;;;30.22;36.48;98007.72;4479566;31;20096;-71
2022/08/16 09:47:08;;;;;;;8.20;3.85;;;;;;;30.47;35.44;98006.69;4483807;31;20111;-71
2022/08/16 09:49:37;;;;;;;4.82;3.70;;;;;;;30.55;35.26;98006.06;4482243;32;20173;-71
2022/08/16 09:52:08;;;;;;;6.40;3.58;;;;;;;30.73;34.66;98001.00;4484198;31;20104;-71
2022/08/16 09:54:36;;;;;;;6.05;3.40;;;;;;;30.84;34.43;98005.22;4484777;31;20100;-71
2022/08/16 09:57:03;;;;;;;7.15;3.62;;;;;;;30.77;34.39;98010.16;4482495;31;20157;-71
2022/08/16 09:59:31;;;;;;;3.85;3.30;;;;;;;30.81;33.26;98002.28;4485265;31;20105;-71
2022/08/16 10:02:08;;;;;;;5.60;3.58;;;;;;;31.06;33.28;97993.06;4476718;32;20108;-71
2022/08/16 10:04:55;;;;;;;3.92;3.50;;;;;;;31.09;33.87;98000.59;4483904;31;20088;-71
2022/08/16 10:07:25;;;;;;;4.03;3.62;;;;;;;31.21;33.24;97995.56;4483394;32;20088;-71
2022/08/16 10:10:12;;;;;;;4.00;3.47;;;;;;;31.15;32.69;97996.75;4469093;32;20076;-71
2022/08/16 10:13:13;;;;;;;3.87;3.58;;;;;;;31.37;33.55;98003.47;4475729;32;20159;-71
2022/08/16 10:15:45;;;;;;;4.40;3.58;;;;;;;31.42;32.92;97996.09;4483255;31;20104;-71
2022/08/16 10:18:21;;;;;;;6.53;4.00;;;;;;;31.84;32.78;97986.25;4482328;31;20130;-71
2022/08/16 10:21:14;;;;;;;5.10;3.60;;;;;;;31.93;32.00;97994.53;4482753;31;20111;-71
2022/08/16 10:23:43;;;;;;;4.00;3.60;;;;;;;31.67;32.13;97991.41;4482075;31;20093;-72
2022/08/16 10:26:11;;;;;;;4.40;3.90;;;;;;;31.76;32.19;97991.53;4479062;31;20160;-71
2022/08/16 10:28:59;;;;;;;5.30;3.62;;;;;;;31.83;32.21;97990.06;4472836;32;20147;-71
2022/08/16 10:31:32;;;;;;;4.53;3.72;;;;;;;32.13;31.93;97990.69;4479599;32;20492;-71
2022/08/16 10:34:12;;;;;;;4.10;3.15;;;;;;;32.29;30.62;97996.63;4480328;31;20092;-70
2022/08/16 10:37:00;;;;;;;5.32;3.20;;;;;;;32.42;28.68;97988.84;4476667;32;20111;-70
2022/08/16 10:39:28;;;;;;;8.60;3.70;;;;;;;32.52;29.30;97988.63;4478313;32;20092;-70
2022/08/16 10:42:09;;;;;;;4.43;3.03;;;;;;;32.55;29.44;97993.44;4473256;31;20788;-71
2022/08/16 10:44:39;;;;;;;4.12;3.33;;;;;;;32.44;27.31;97997.47;4467713;32;20560;-71
2022/08/16 10:47:09;;;;;;;3.28;2.85;;;;;;;32.56;28.34;97995.06;4481019;31;20127;-70
2022/08/16 10:49:37;;;;;;;3.55;3.25;;;;;;;32.91;26.74;97990.03;4479444;31;20096;-70
2022/08/16 10:52:05;;;;;;;4.62;3.50;;;;;;;33.06;27.46;97992.44;4481660;31;20108;-71
2022/08/16 10:54:45;;;;;;;5.65;3.50;;;;;;;32.87;28.02;97997.16;4477877;32;20806;-71
2022/08/16 10:57:32;;;;;;;6.78;3.58;;;;;;;32.71;28.33;97991.28;4477893;32;20084;-70
2022/08/16 11:00:06;;;;;;;4.70;3.72;;;;;;;32.83;28.40;97990.75;4481626;32;20458;-70
2022/08/16 11:02:51;;;;;;;4.68;3.30;;;;;;;32.69;28.35;97986.16;4483212;31;20122;-70
2022/08/16 11:05:29;;;;;;;4.20;3.58;;;;;;;32.72;27.67;97993.69;4484481;31;20080;-71
2022/08/16 11:08:16;;;;;;;3.97;3.58;;;;;;;32.93;28.29;97977.00;4482956;31;20072;-71
2022/08/16 11:11:05;;;;;;;4.80;3.30;;;;;;;32.92;27.55;97988.94;4483969;31;20081;-70
2022/08/16 11:13:47;;;;;;;4.43;3.85;;;;;;;33.00;27.61;97987.44;4483995;31;20084;-71
2022/08/16 11:16:35;;;;;;;3.83;3.45;;;;;;;33.62;26.79;97977.94;4484307;31;20080;-70
2022/08/16 11:19:22;;;;;;;6.40;3.95;;;;;;;33.63;26.64;97976.81;4483889;31;20080;-71
